09IN weather

Gordon Airport
Columbia City, Indiana, United States

Public forecast

Using degrees Fahrenheit for public forecast. Weather courtesy of forecast.io.

METAR (pilot weather report)

Closest report is Fort Wayne International Airport, 13.5 nm (24.9 km) SE. Retrieved 2019/04/20 04:30 UTC (0 seconds ago):

KFWA 200430Z 01021G30KT 10SM SCT019 OVC045 06/03 A2966

TAF (pilot weather forecast)

Forecast is more than 12 hours old.

Closest forecast is Fort Wayne International Airport, 13.5 nm (24.9 km) SE. Retrieved 2019/04/19 00:39 UTC (1 day ago):

TAF KFWA 192336Z 2000/2024 02018G28KT P6SM VCSH OVC018 FM200800 02019G29KT 6SM -SHRA BR OVC010 TEMPO 2012/2015 3SM SHRA BR OVC007 FM201600 36012KT P6SM -SHRA OVC010